Time;durP1;ratioP1;P1;durP2;ratioP2;P2;SDS_P1;SDS_P2;PMS_P1;PMS_P2;Temp;Humidity;BMP_temperature;BMP_pressure;BME280_temperature;BME280_humidity;BME280_pressure;Samples;Min_cycle;Max_cycle;Signal;HPM_P1;HPM_P2
2022/04/29 00:01:35;;;;;;;4.97;4.37;;;;;;;13.20;48.09;99025.63;8122619;29;20248;-76
2022/04/29 00:05:40;;;;;;;5.00;4.40;;;;;;;13.12;48.46;99032.91;8123685;29;20244;-76
2022/04/29 00:09:43;;;;;;;7.63;4.47;;;;;;;13.03;48.50;99026.28;8123209;29;20240;-76
2022/04/29 00:13:46;;;;;;;4.63;4.07;;;;;;;12.99;48.33;99029.91;8123275;29;20247;-76
2022/04/29 00:17:50;;;;;;;6.30;4.37;;;;;;;12.99;48.45;99024.69;8123363;29;20244;-76
2022/04/29 00:21:53;;;;;;;6.10;4.17;;;;;;;13.02;48.49;99018.53;8126697;29;20244;-76
2022/04/29 00:25:56;;;;;;;5.50;4.20;;;;;;;12.98;48.69;99024.75;8129154;29;20248;-75
2022/04/29 00:29:59;;;;;;;6.30;4.63;;;;;;;12.91;49.16;99009.38;8129348;29;20258;-75
2022/04/29 00:34:03;;;;;;;7.63;4.57;;;;;;;12.99;48.80;98996.09;8129190;29;20240;-76
2022/04/29 00:38:07;;;;;;;8.00;4.30;;;;;;;12.95;48.19;98993.69;8128899;29;20379;-75
2022/04/29 00:42:13;;;;;;;6.10;4.40;;;;;;;12.70;48.55;98999.78;8128927;29;20247;-76
2022/04/29 00:46:16;;;;;;;6.93;4.50;;;;;;;12.74;48.45;98996.16;8143362;29;20244;-80
2022/04/29 00:50:22;;;;;;;6.53;4.20;;;;;;;12.69;48.33;98996.31;8159626;29;20264;-81
2022/04/29 00:54:27;;;;;;;4.97;4.47;;;;;;;12.67;48.33;98985.13;8159287;29;20251;-80
2022/04/29 00:58:34;;;;;;;6.20;4.60;;;;;;;12.62;48.78;98981.00;8159574;29;20577;-81
2022/04/29 01:02:39;;;;;;;5.90;4.50;;;;;;;12.64;48.59;98987.88;8159074;29;20247;-81
2022/04/29 01:06:44;;;;;;;6.17;4.30;;;;;;;12.58;48.81;98975.06;8159391;29;20519;-80
2022/04/29 01:10:47;;;;;;;7.33;4.50;;;;;;;12.56;49.04;98966.50;8159215;29;20438;-81
2022/04/29 01:14:50;;;;;;;8.40;4.53;;;;;;;12.40;48.93;98970.56;8158966;29;20240;-81
2022/04/29 01:18:54;;;;;;;4.90;4.13;;;;;;;12.46;49.06;98971.19;8158989;29;20236;-80
2022/04/29 01:22:58;;;;;;;6.97;4.33;;;;;;;12.42;49.47;98963.56;8158748;29;20236;-80
2022/04/29 01:27:01;;;;;;;6.33;4.73;;;;;;;12.30;48.94;98960.50;8158872;29;20240;-80
2022/04/29 01:31:06;;;;;;;5.83;4.83;;;;;;;12.29;48.80;98952.75;8158421;29;20243;-80
2022/04/29 01:35:10;;;;;;;8.13;4.93;;;;;;;12.20;49.32;98953.91;8157891;29;20307;-80
2022/04/29 01:39:15;;;;;;;6.37;5.47;;;;;;;12.09;49.08;98948.28;8158155;29;20244;-80
2022/04/29 01:43:18;;;;;;;6.47;4.73;;;;;;;12.18;49.29;98947.09;8158277;29;20248;-80
2022/04/29 01:47:21;;;;;;;5.50;4.70;;;;;;;12.08;49.17;98941.38;8157980;29;20244;-81
2022/04/29 01:51:24;;;;;;;6.70;4.80;;;;;;;12.07;49.44;98948.31;8157568;29;20239;-80
2022/04/29 01:55:29;;;;;;;6.07;5.47;;;;;;;12.10;49.56;98939.56;8157811;29;20248;-80
2022/04/29 01:59:33;;;;;;;6.47;5.70;;;;;;;12.07;49.29;98943.13;8157757;29;20251;-80
2022/04/29 02:03:36;;;;;;;6.93;5.97;;;;;;;12.04;49.63;98940.63;8157896;29;20252;-80
2022/04/29 02:07:43;;;;;;;10.27;5.77;;;;;;;12.00;50.10;98936.44;8157470;29;20267;-80
2022/04/29 02:16:05;;;;;;;7.47;5.83;;;;;;;11.90;49.30;98943.72;8157155;29;20247;-81
2022/04/29 02:20:09;;;;;;;7.17;6.07;;;;;;;11.78;49.48;98941.47;8157334;29;20240;-80
2022/04/29 02:24:12;;;;;;;10.00;5.80;;;;;;;11.75;49.45;98939.00;8157001;29;20443;-80
2022/04/29 02:28:17;;;;;;;6.27;5.67;;;;;;;11.69;49.42;98945.25;8156849;29;20240;-80
2022/04/29 02:32:21;;;;;;;6.37;5.77;;;;;;;11.65;49.66;98935.00;8156398;29;20240;-80
2022/04/29 02:36:23;;;;;;;8.13;5.17;;;;;;;11.57;49.50;98931.81;8155946;29;20240;-80
2022/04/29 02:40:26;;;;;;;8.87;6.13;;;;;;;11.50;49.93;98926.00;8156173;29;20246;-80
2022/04/29 02:44:31;;;;;;;6.33;5.70;;;;;;;11.53;49.78;98934.50;8155215;29;20251;-80
2022/04/29 02:48:34;;;;;;;8.37;5.73;;;;;;;11.43;49.82;98933.13;8155833;29;20240;-81
2022/04/29 02:52:37;;;;;;;7.37;5.57;;;;;;;11.34;50.63;98929.06;8155803;29;20243;-81
2022/04/29 02:56:39;;;;;;;11.80;5.93;;;;;;;11.41;50.55;98921.13;8155556;29;20251;-80
2022/04/29 03:00:44;;;;;;;7.87;5.90;;;;;;;11.34;50.60;98928.22;8156118;29;20247;-80
2022/04/29 03:04:47;;;;;;;7.00;5.87;;;;;;;11.33;50.40;98922.19;8155866;29;20240;-80
2022/04/29 03:08:50;;;;;;;8.37;6.80;;;;;;;11.31;50.51;98916.22;8155229;29;20244;-80
2022/04/29 03:12:53;;;;;;;9.13;7.10;;;;;;;11.22;50.54;98916.50;8155361;29;20232;-80
2022/04/29 03:16:57;;;;;;;7.40;6.10;;;;;;;11.17;50.82;98917.56;8155241;29;20239;-81
2022/04/29 03:21:00;;;;;;;8.93;6.33;;;;;;;11.30;50.43;98908.50;8154838;29;20239;-80
2022/04/29 03:25:06;;;;;;;7.83;6.37;;;;;;;11.23;50.55;98919.94;8154902;29;20244;-81
2022/04/29 03:29:09;;;;;;;7.60;6.30;;;;;;;11.22;50.58;98919.09;8155112;29;20262;-79
2022/04/29 03:33:13;;;;;;;7.83;6.37;;;;;;;11.18;50.59;98927.88;8154841;29;20239;-80
2022/04/29 03:37:16;;;;;;;9.53;6.67;;;;;;;11.13;50.16;98928.00;8155034;29;20581;-80
2022/04/29 03:41:20;;;;;;;8.83;6.30;;;;;;;11.13;50.17;98922.81;8154796;29;20244;-80
2022/04/29 03:45:24;;;;;;;8.60;6.30;;;;;;;11.09;50.44;98921.22;8154311;29;20247;-80
2022/04/29 03:49:37;;;;;;;7.17;6.23;;;;;;;11.11;50.73;98926.38;8154979;29;20247;-80
2022/04/29 03:53:41;;;;;;;8.93;6.27;;;;;;;11.15;50.12;98926.22;8154933;29;20315;-80
2022/04/29 03:57:44;;;;;;;8.83;6.23;;;;;;;11.18;49.97;98932.22;8162910;29;20263;-80
2022/04/29 04:01:47;;;;;;;8.27;6.53;;;;;;;11.04;50.18;98930.03;8164892;29;20236;-80
2022/04/29 04:10:08;;;;;;;9.93;6.47;;;;;;;11.02;50.55;98934.44;8163114;29;20432;-80
2022/04/29 04:14:11;;;;;;;7.63;6.07;;;;;;;11.02;50.27;98937.84;8163541;29;20249;-80
2022/04/29 04:18:14;;;;;;;6.80;6.00;;;;;;;10.99;50.19;98934.53;8163405;29;20236;-80
2022/04/29 04:22:19;;;;;;;8.43;6.40;;;;;;;10.93;50.54;98936.41;8163312;29;20240;-80
2022/04/29 04:26:22;;;;;;;6.67;6.07;;;;;;;10.93;50.40;98933.81;8162716;29;20244;-77
2022/04/29 04:30:25;;;;;;;8.17;6.27;;;;;;;10.93;50.29;98944.19;8163083;29;20248;-80
2022/04/29 04:38:50;;;;;;;6.53;5.83;;;;;;;11.07;50.07;98950.69;8163091;29;20236;-81
2022/04/29 04:42:53;;;;;;;9.60;6.30;;;;;;;10.88;50.61;98942.63;8162986;29;20262;-82
2022/04/29 04:46:56;;;;;;;6.90;5.73;;;;;;;11.06;50.99;98947.25;8162820;29;20236;-81
2022/04/29 04:51:01;;;;;;;8.77;6.20;;;;;;;11.10;50.96;98945.41;8162980;29;20243;-81
2022/04/29 04:55:07;;;;;;;11.60;6.57;;;;;;;10.94;51.10;98948.47;8162943;29;20551;-81
2022/04/29 04:59:11;;;;;;;9.27;7.30;;;;;;;11.04;51.59;98950.78;8162379;29;20240;-78
2022/04/29 05:03:16;;;;;;;6.97;6.13;;;;;;;11.13;50.87;98951.34;8161125;29;20238;-81
2022/04/29 05:11:37;;;;;;;6.83;6.10;;;;;;;11.25;51.04;98962.22;8546247;27;20548;-73
2022/04/29 05:16:00;;;;;;;8.70;6.70;;;;;;;11.49;51.04;98955.44;8512205;27;20232;-74
2022/04/29 05:20:04;;;;;;;10.00;7.03;;;;;;;11.39;51.30;98967.84;8524338;27;20228;-74
2022/04/29 05:24:08;;;;;;;8.33;6.40;;;;;;;11.60;51.06;98971.50;8544302;27;20228;-74
2022/04/29 05:28:12;;;;;;;11.10;6.67;;;;;;;11.67;51.23;98961.75;8543968;27;20632;-74
2022/04/29 05:32:16;;;;;;;7.10;6.30;;;;;;;11.96;51.22;98971.22;8512230;27;20227;-73
2022/04/29 05:36:19;;;;;;;7.10;6.40;;;;;;;12.20;51.17;98968.66;8543295;27;20235;-72
2022/04/29 05:44:44;;;;;;;10.37;6.57;;;;;;;12.33;51.29;98975.13;8525892;27;20237;-74
2022/04/29 05:48:47;;;;;;;9.13;6.70;;;;;;;12.54;50.75;98970.91;8526830;27;20240;-74
2022/04/29 05:52:50;;;;;;;10.27;7.70;;;;;;;12.62;49.57;98968.00;8538195;27;20232;-74
2022/04/29 05:56:53;;;;;;;13.60;7.07;;;;;;;12.91;48.83;98973.00;8538733;27;20239;-73
2022/04/29 06:00:58;;;;;;;10.67;7.33;;;;;;;12.83;48.92;98976.75;8526319;27;20237;-73
2022/04/29 06:05:01;;;;;;;9.40;6.47;;;;;;;13.15;47.81;98975.53;8526160;27;20237;-74
2022/04/29 06:09:04;;;;;;;9.20;6.57;;;;;;;13.41;47.41;98969.34;8525809;27;20248;-74
2022/04/29 06:13:08;;;;;;;9.40;6.37;;;;;;;13.35;46.68;98960.97;8525792;27;20229;-73
2022/04/29 06:17:13;;;;;;;9.50;6.60;;;;;;;13.60;46.60;98971.22;8525780;27;20233;-74
2022/04/29 06:21:16;;;;;;;13.90;6.77;;;;;;;14.00;46.00;98966.97;8512271;27;20425;-74
2022/04/29 06:25:20;;;;;;;8.37;6.63;;;;;;;14.51;45.68;98964.75;8502568;27;20233;-74
2022/04/29 06:29:23;;;;;;;7.07;6.40;;;;;;;13.97;45.41;98961.88;8502170;27;20229;-74
2022/04/29 06:33:34;;;;;;;9.40;7.10;;;;;;;14.10;45.84;98968.25;8502469;27;20535;-74
2022/04/29 06:37:37;;;;;;;11.33;6.43;;;;;;;14.35;45.64;98972.41;8502327;27;20443;-75
2022/04/29 06:41:41;;;;;;;11.00;6.80;;;;;;;14.84;46.02;98972.84;8502028;27;20233;-75
2022/04/29 06:45:45;;;;;;;9.07;6.70;;;;;;;14.59;45.04;98979.19;8493317;27;20298;-76
2022/04/29 06:49:50;;;;;;;7.03;6.33;;;;;;;14.57;45.90;98972.34;8501753;27;20253;-75
2022/04/29 06:53:54;;;;;;;7.60;6.80;;;;;;;14.85;44.58;98974.56;8501762;27;20240;-75
2022/04/29 06:57:57;;;;;;;7.20;6.50;;;;;;;14.70;44.78;98981.31;8501602;27;20237;-75
2022/04/29 07:02:00;;;;;;;8.27;6.43;;;;;;;14.79;45.21;98973.09;8501477;27;20230;-75
2022/04/29 07:06:06;;;;;;;9.30;6.50;;;;;;;15.59;43.35;98982.38;8501417;27;20236;-75
2022/04/29 07:10:10;;;;;;;8.10;6.20;;;;;;;15.98;43.96;98976.09;8501106;27;20240;-75
2022/04/29 07:14:13;;;;;;;8.00;5.50;;;;;;;16.47;42.34;98977.97;8501200;27;20233;-75
2022/04/29 07:18:16;;;;;;;8.73;6.20;;;;;;;16.14;41.58;98967.50;8501090;27;20240;-75
2022/04/29 07:22:21;;;;;;;9.23;6.00;;;;;;;16.34;42.47;98969.09;8500939;27;20240;-75
2022/04/29 07:26:23;;;;;;;6.83;5.80;;;;;;;16.54;41.38;98965.41;8483292;28;20236;-75
2022/04/29 07:30:27;;;;;;;11.67;6.73;;;;;;;16.93;40.60;98959.03;8483438;28;20233;-74
2022/04/29 07:43:08;;;;;;;14.40;8.10;;;;;;;17.65;39.69;98948.88;8450339;27;20256;-75
2022/04/29 07:47:11;;;;;;;10.67;6.13;;;;;;;18.03;37.85;98948.44;8483074;28;20232;-75
2022/04/29 07:51:15;;;;;;;7.50;5.93;;;;;;;18.48;37.69;98947.44;8482806;28;20551;-74
2022/04/29 07:55:19;;;;;;;7.67;6.40;;;;;;;17.95;36.69;98941.91;8482917;28;20236;-75
2022/04/29 07:59:22;;;;;;;9.63;6.33;;;;;;;18.27;37.14;98939.09;8499420;27;20228;-75
2022/04/29 08:03:25;;;;;;;8.00;6.67;;;;;;;18.22;36.91;98951.66;8499322;27;20235;-74
2022/04/29 08:07:28;;;;;;;8.70;6.53;;;;;;;18.10;35.42;98944.53;8499474;27;20424;-75
2022/04/29 08:11:32;;;;;;;10.40;6.03;;;;;;;18.17;36.07;98944.06;8498529;27;20543;-74
2022/04/29 08:15:35;;;;;;;8.10;6.20;;;;;;;19.05;34.72;98945.72;8499128;27;20240;-75
2022/04/29 08:19:39;;;;;;;14.10;6.83;;;;;;;18.81;35.28;98941.09;8499226;27;20232;-74
2022/04/29 08:23:42;;;;;;;10.40;6.00;;;;;;;19.59;34.61;98940.47;8498980;27;20659;-74
2022/04/29 08:27:47;;;;;;;10.73;6.40;;;;;;;20.09;33.98;98938.91;8498963;27;20230;-75
2022/04/29 08:31:50;;;;;;;8.47;6.13;;;;;;;20.12;34.68;98940.47;8498546;27;20240;-75
2022/04/29 08:35:54;;;;;;;10.90;5.73;;;;;;;20.51;31.72;98943.94;8498665;27;20224;-75
2022/04/29 08:39:57;;;;;;;12.23;6.50;;;;;;;20.51;32.88;98943.94;8498425;27;20244;-75
2022/04/29 08:44:02;;;;;;;12.43;6.23;;;;;;;21.11;31.09;98939.69;8498055;27;20224;-75
2022/04/29 08:48:06;;;;;;;26.50;6.70;;;;;;;21.69;30.63;98931.16;8498522;27;20235;-75
2022/04/29 08:52:11;;;;;;;8.80;6.40;;;;;;;21.69;29.67;98936.44;8498124;27;20549;-75
2022/04/29 09:00:39;;;;;;;6.97;5.27;;;;;;;21.73;29.54;98924.69;8481013;28;20424;-75
2022/04/29 09:04:42;;;;;;;6.30;5.70;;;;;;;21.36;29.99;98930.00;8481094;28;20403;-75
2022/04/29 09:08:47;;;;;;;5.70;5.10;;;;;;;21.41;29.66;98927.88;8480495;28;20236;-75
2022/04/29 09:12:50;;;;;;;8.00;4.50;;;;;;;21.64;26.92;98919.13;8480764;28;20555;-75
2022/04/29 09:16:55;;;;;;;6.60;3.93;;;;;;;22.13;25.36;98914.56;8480946;28;20535;-75
2022/04/29 09:20:58;;;;;;;4.10;3.37;;;;;;;22.70;24.64;98917.25;8480774;28;20344;-75
2022/04/29 09:25:02;;;;;;;10.40;5.60;;;;;;;22.22;24.77;98913.03;8480206;28;20237;-75
2022/04/29 09:29:12;;;;;;;6.67;3.43;;;;;;;23.11;23.24;98915.75;8480410;28;20241;-75
2022/04/29 09:33:21;;;;;;;6.43;4.90;;;;;;;23.32;23.53;98905.22;8480555;28;20239;-75
2022/04/29 09:37:28;;;;;;;11.03;3.90;;;;;;;23.83;30.86;98903.72;8473381;27;20222;-75
2022/04/29 09:41:32;;;;;;;6.80;4.47;;;;;;;23.16;31.31;98903.84;8513603;27;20295;-75
2022/04/29 09:45:36;;;;;;;7.07;3.87;;;;;;;22.67;33.05;98902.47;8483083;27;20229;-76
2022/04/29 09:49:41;;;;;;;6.70;5.43;;;;;;;22.50;28.16;98892.44;8514037;27;20231;-76
2022/04/29 09:53:44;;;;;;;7.57;5.70;;;;;;;22.42;26.12;98882.47;8514123;27;20227;-76
2022/04/29 09:57:58;;;;;;;10.17;5.53;;;;;;;21.86;25.71;98883.25;8518969;27;20243;-75
2022/04/29 10:02:02;;;;;;;6.27;4.63;;;;;;;22.55;29.66;98877.06;8520250;27;20244;-75
2022/04/29 10:06:09;;;;;;;6.23;4.87;;;;;;;23.56;28.58;98873.31;8520431;27;20240;-78
2022/04/29 10:10:12;;;;;;;12.70;5.50;;;;;;;24.11;28.15;98866.00;8519896;27;20235;-75
2022/04/29 10:14:16;;;;;;;8.53;5.73;;;;;;;23.98;22.89;98857.44;8520075;27;20232;-75
2022/04/29 10:22:43;;;;;;;6.70;4.30;;;;;;;24.22;25.08;98853.63;8519519;27;20229;-76
2022/04/29 10:26:49;;;;;;;6.27;4.17;;;;;;;23.43;24.95;98854.97;8520131;27;20229;-76
2022/04/29 10:31:01;;;;;;;6.67;4.63;;;;;;;24.28;24.23;98856.59;8520220;27;20260;-77
2022/04/29 10:35:04;;;;;;;7.53;5.30;;;;;;;23.45;23.87;98845.09;8519627;27;20282;-77
2022/04/29 10:39:18;;;;;;;7.80;5.33;;;;;;;23.32;22.97;98842.69;8519426;27;20244;-76
2022/04/29 10:43:21;;;;;;;10.63;4.87;;;;;;;23.67;24.28;98830.94;8519180;27;20236;-74
2022/04/29 10:47:29;;;;;;;5.83;3.80;;;;;;;23.77;24.62;98836.28;8501327;27;20225;-76
2022/04/29 10:51:50;;;;;;;7.70;4.70;;;;;;;23.79;24.24;98826.44;8501786;27;20272;-74
2022/04/29 10:55:54;;;;;;;4.83;3.90;;;;;;;24.37;25.00;98828.50;8501737;27;20233;-76
2022/04/29 11:00:00;;;;;;;6.30;3.93;;;;;;;24.11;23.93;98822.84;8501444;27;20236;-78
2022/04/29 11:04:05;;;;;;;6.97;3.80;;;;;;;24.34;24.13;98824.28;8501384;27;20240;-77
2022/04/29 11:08:09;;;;;;;8.50;3.90;;;;;;;24.26;24.72;98818.84;8501060;27;20236;-75
2022/04/29 11:12:29;;;;;;;5.37;3.50;;;;;;;23.90;22.81;98810.47;8501075;27;20233;-76
2022/04/29 11:16:48;;;;;;;4.83;3.57;;;;;;;24.20;24.18;98814.94;8483529;28;20233;-76
2022/04/29 11:20:56;;;;;;;6.00;4.17;;;;;;;23.86;24.89;98805.59;8483831;27;20244;-75
2022/04/29 11:25:00;;;;;;;4.43;3.37;;;;;;;23.66;26.92;98796.69;8483715;28;20248;-76
2022/04/29 11:29:10;;;;;;;7.40;3.30;;;;;;;24.08;25.10;98800.09;8483509;27;20233;-76
2022/04/29 11:33:13;;;;;;;6.87;3.37;;;;;;;23.83;26.94;98790.81;8483677;27;20237;-76
2022/04/29 11:37:22;;;;;;;3.90;3.03;;;;;;;23.91;27.61;98790.16;8483619;28;20230;-76
2022/04/29 11:41:27;;;;;;;5.13;3.20;;;;;;;23.39;27.91;98784.84;8499959;27;20237;-75
2022/04/29 11:45:32;;;;;;;4.90;3.33;;;;;;;23.25;26.70;98778.09;8500012;27;20240;-75
2022/04/29 11:49:35;;;;;;;5.23;3.23;;;;;;;22.70;26.91;98779.97;8500161;27;20229;-76
2022/04/29 11:53:53;;;;;;;5.00;3.40;;;;;;;23.17;24.64;98764.66;8499764;27;20506;-77
2022/04/29 11:57:56;;;;;;;5.60;3.00;;;;;;;23.54;26.72;98761.56;8499643;27;20228;-76
2022/04/29 12:02:00;;;;;;;6.87;3.47;;;;;;;22.61;24.77;98768.34;8499544;27;20247;-76
2022/04/29 12:06:04;;;;;;;7.17;3.27;;;;;;;23.56;27.36;98763.09;8499511;27;20285;-76
2022/04/29 12:10:18;;;;;;;4.63;3.20;;;;;;;24.07;25.33;98760.56;8499253;27;20233;-76
2022/04/29 12:14:21;;;;;;;7.33;3.13;;;;;;;23.94;24.07;98748.41;8499264;27;20292;-76
2022/04/29 12:18:43;;;;;;;6.43;3.43;;;;;;;23.78;23.07;98746.28;8498173;27;20225;-76
2022/04/29 12:22:48;;;;;;;5.57;3.10;;;;;;;23.93;25.26;98740.59;8498884;27;20418;-75
2022/04/29 12:27:05;;;;;;;4.80;3.40;;;;;;;23.86;23.89;98739.47;8498926;27;20235;-77
2022/04/29 12:35:31;;;;;;;3.67;2.57;;;;;;;24.88;23.92;98720.69;8498308;27;20248;-76
2022/04/29 12:39:36;;;;;;;3.43;2.50;;;;;;;25.24;22.82;98721.78;8498604;27;20229;-75
2022/04/29 12:43:41;;;;;;;7.70;3.17;;;;;;;24.20;26.49;98724.13;8498494;27;20404;-76
2022/04/29 12:47:49;;;;;;;4.23;2.77;;;;;;;24.34;22.70;98717.59;8498401;27;20229;-76
2022/04/29 12:51:59;;;;;;;5.40;2.43;;;;;;;24.43;23.71;98713.25;8498600;27;20248;-77
2022/04/29 12:56:08;;;;;;;5.07;2.70;;;;;;;25.14;23.45;98700.56;8498248;27;20638;-77
2022/04/29 13:00:12;;;;;;;3.67;2.57;;;;;;;25.11;23.63;98700.03;8498402;27;20239;-77
2022/04/29 13:04:15;;;;;;;5.13;3.10;;;;;;;24.47;23.22;98688.22;8497965;27;20230;-78
2022/04/29 13:08:19;;;;;;;3.70;2.80;;;;;;;23.17;23.58;98688.91;8498020;27;20243;-76
2022/04/29 13:12:22;;;;;;;3.73;2.40;;;;;;;23.88;24.01;98680.19;8480319;28;20495;-75
2022/04/29 13:16:26;;;;;;;5.17;2.60;;;;;;;22.89;24.61;98665.75;8480414;28;20433;-74
2022/04/29 13:20:29;;;;;;;8.83;2.90;;;;;;;23.05;24.59;98673.25;8480539;28;20233;-75
2022/04/29 13:24:33;;;;;;;6.43;3.17;;;;;;;22.71;25.37;98658.38;8480622;28;20411;-75
2022/04/29 13:28:38;;;;;;;4.73;2.70;;;;;;;23.37;25.46;98655.47;8480533;28;20229;-75
2022/04/29 13:32:42;;;;;;;3.73;2.47;;;;;;;23.81;25.28;98640.19;8485727;28;20244;-75
2022/04/29 13:36:45;;;;;;;3.33;2.50;;;;;;;24.19;24.41;98640.41;8487062;27;20229;-75
2022/04/29 13:40:50;;;;;;;3.43;2.60;;;;;;;24.55;24.60;98632.78;8486982;28;20239;-75
2022/04/29 13:44:53;;;;;;;4.00;2.63;;;;;;;24.22;24.37;98623.41;8487064;28;20233;-75
2022/04/29 13:48:56;;;;;;;4.80;2.60;;;;;;;24.50;24.53;98624.38;8486807;28;20237;-75
2022/04/29 13:53:08;;;;;;;5.03;2.50;;;;;;;24.76;24.14;98617.56;8486561;28;20245;-75
2022/04/29 13:57:13;;;;;;;4.30;2.70;;;;;;;24.34;23.62;98619.66;8486788;27;20238;-75
2022/04/29 14:01:16;;;;;;;5.03;2.60;;;;;;;24.03;24.06;98616.28;8486501;28;20241;-75
2022/04/29 14:05:21;;;;;;;4.53;2.50;;;;;;;23.76;24.51;98617.75;8486433;28;20328;-75
2022/04/29 14:09:24;;;;;;;3.40;2.43;;;;;;;23.94;24.02;98602.09;8502738;27;20293;-74
2022/04/29 14:13:28;;;;;;;3.83;2.50;;;;;;;24.17;24.25;98600.03;8503122;27;20245;-75
2022/04/29 14:17:32;;;;;;;5.40;3.00;;;;;;;23.88;26.98;98602.66;8503106;27;20229;-75
2022/04/29 14:21:35;;;;;;;5.93;3.00;;;;;;;24.26;24.20;98590.44;8502846;27;20561;-75
2022/04/29 14:25:38;;;;;;;8.10;3.10;;;;;;;23.50;25.28;98589.16;8502701;27;20292;-75
2022/04/29 14:29:43;;;;;;;6.37;2.43;;;;;;;24.02;23.25;98582.88;8502692;27;20232;-75
2022/04/29 14:33:45;;;;;;;4.60;2.80;;;;;;;24.10;25.83;98570.63;8502477;27;20236;-75
2022/04/29 14:37:50;;;;;;;4.60;2.90;;;;;;;23.61;25.50;98570.56;8502451;27;20233;-75
2022/04/29 14:41:55;;;;;;;4.43;2.53;;;;;;;23.82;26.00;98569.66;8501593;27;20233;-75
2022/04/29 14:45:59;;;;;;;3.73;2.57;;;;;;;23.64;25.15;98565.97;8501787;27;20236;-75
2022/04/29 14:50:02;;;;;;;4.67;2.80;;;;;;;23.26;25.29;98565.72;8501976;27;20235;-75
2022/04/29 14:54:05;;;;;;;4.50;3.13;;;;;;;23.38;27.05;98561.16;8501707;27;20299;-74
2022/04/29 14:58:08;;;;;;;3.60;2.17;;;;;;;23.58;25.93;98554.97;8501376;27;20242;-74
2022/04/29 15:02:13;;;;;;;5.07;2.90;;;;;;;23.47;26.98;98551.59;8501655;27;20243;-74
2022/04/29 15:06:16;;;;;;;4.53;2.80;;;;;;;23.37;26.74;98556.88;8501697;27;20421;-74
2022/04/29 15:19:06;;;;;;;4.43;2.93;;;;;;;23.29;29.32;98549.63;8501356;27;20229;-75
2022/04/29 15:23:10;;;;;;;5.07;2.30;;;;;;;23.37;27.35;98543.66;8501114;27;20232;-75
2022/04/29 15:27:14;;;;;;;6.70;2.30;;;;;;;23.61;26.27;98540.66;8501033;27;20231;-74
2022/04/29 15:31:17;;;;;;;4.83;2.70;;;;;;;23.52;26.13;98537.00;8516904;27;20225;-75
2022/04/29 15:35:22;;;;;;;5.87;2.33;;;;;;;23.73;26.80;98530.78;8509180;27;20235;-75
2022/04/29 15:39:25;;;;;;;8.20;3.07;;;;;;;23.70;28.23;98523.13;8483000;27;20216;-75
2022/04/29 15:43:28;;;;;;;6.67;3.60;;;;;;;23.54;32.10;98524.50;8474470;27;20238;-75
2022/04/29 15:47:32;;;;;;;2.30;2.10;;;;;;;23.43;26.19;98525.44;8482903;28;20233;-74
2022/04/29 15:51:36;;;;;;;5.70;2.63;;;;;;;23.31;26.90;98520.41;8482773;27;20237;-74
2022/04/29 15:55:41;;;;;;;4.80;2.30;;;;;;;23.07;27.04;98526.88;8481634;27;20233;-77
2022/04/29 15:59:44;;;;;;;4.53;2.47;;;;;;;22.84;27.47;98531.47;8482674;28;20237;-75
2022/04/29 16:03:49;;;;;;;4.93;2.47;;;;;;;22.36;26.71;98517.03;8482339;27;20278;-74
2022/04/29 16:07:57;;;;;;;4.43;2.47;;;;;;;22.15;27.77;98514.38;8496683;27;20237;-75
2022/04/29 16:12:01;;;;;;;4.10;2.70;;;;;;;22.10;28.62;98516.53;8465403;28;20262;-74
2022/04/29 16:16:04;;;;;;;4.60;2.30;;;;;;;22.12;28.18;98505.88;8465232;28;20232;-75
2022/04/29 16:28:51;;;;;;;3.70;2.47;;;;;;;21.79;29.39;98503.25;8464978;28;20228;-75
2022/04/29 16:32:54;;;;;;;3.87;2.50;;;;;;;21.72;29.53;98502.06;8464606;28;20569;-76
2022/04/29 16:36:57;;;;;;;4.20;3.07;;;;;;;21.55;30.22;98498.22;8464843;28;20243;-76
2022/04/29 16:41:01;;;;;;;3.60;2.70;;;;;;;21.44;30.60;98492.97;8464793;28;20228;-75
2022/04/29 16:45:05;;;;;;;6.17;2.60;;;;;;;21.27;30.25;98492.50;8476793;27;20510;-76
2022/04/29 16:49:08;;;;;;;3.07;2.60;;;;;;;21.35;30.58;98493.69;8498308;27;20243;-76
2022/04/29 16:53:11;;;;;;;4.23;2.73;;;;;;;21.29;30.57;98487.09;8497910;27;20239;-75
2022/04/29 17:01:36;;;;;;;5.13;3.10;;;;;;;21.05;30.25;98485.44;8497804;27;20541;-75
2022/04/29 17:05:39;;;;;;;5.30;2.63;;;;;;;21.11;30.76;98476.22;8497613;27;20310;-76
2022/04/29 17:09:42;;;;;;;5.10;2.63;;;;;;;20.93;30.02;98470.63;8497519;27;20241;-76
2022/04/29 17:13:46;;;;;;;4.73;2.47;;;;;;;20.87;29.79;98468.50;8497567;27;20234;-76
2022/04/29 17:17:49;;;;;;;6.03;2.80;;;;;;;20.75;29.87;98472.06;8497778;27;20236;-76
2022/04/29 17:21:52;;;;;;;3.53;2.50;;;;;;;20.87;30.61;98479.03;8497592;27;20239;-76
2022/04/29 17:25:55;;;;;;;4.30;2.80;;;;;;;20.85;30.86;98465.16;8497797;27;20567;-75
2022/04/29 17:30:00;;;;;;;3.43;2.70;;;;;;;20.65;30.75;98467.53;8497562;27;20245;-76
2022/04/29 17:34:03;;;;;;;5.13;2.60;;;;;;;20.60;31.04;98474.97;8497490;27;20240;-76
2022/04/29 17:38:06;;;;;;;5.07;2.90;;;;;;;20.58;31.64;98483.88;8497611;27;20557;-76
2022/04/29 17:42:25;;;;;;;3.47;2.50;;;;;;;20.51;31.33;98479.09;8497392;27;20235;-75
2022/04/29 17:46:30;;;;;;;4.53;3.23;;;;;;;20.41;32.45;98479.91;8496943;27;20269;-75
2022/04/29 17:50:34;;;;;;;3.10;2.60;;;;;;;20.35;32.60;98473.31;8497335;27;20234;-75
2022/04/29 17:54:37;;;;;;;4.27;2.87;;;;;;;20.30;32.49;98481.56;8497051;27;20238;-75
2022/04/29 17:58:41;;;;;;;8.07;3.07;;;;;;;20.27;32.84;98481.78;8496900;27;20233;-76
2022/04/29 18:02:46;;;;;;;4.27;3.00;;;;;;;20.22;33.03;98480.47;8496752;27;20233;-75
2022/04/29 18:06:49;;;;;;;7.10;3.70;;;;;;;20.14;33.37;98480.22;8496831;27;20239;-76
2022/04/29 18:10:52;;;;;;;8.03;4.00;;;;;;;20.12;33.47;98485.59;8496430;27;20235;-76
2022/04/29 18:14:55;;;;;;;5.37;4.07;;;;;;;20.01;33.02;98489.03;8496693;27;20242;-75
2022/04/29 18:19:00;;;;;;;4.73;3.23;;;;;;;20.01;33.43;98485.56;8502200;27;20257;-75
2022/04/29 18:23:03;;;;;;;12.00;3.70;;;;;;;19.92;33.65;98487.94;8502896;27;20256;-75
2022/04/29 18:27:07;;;;;;;5.73;3.13;;;;;;;19.87;33.67;98492.69;8502785;27;20241;-76
2022/04/29 18:31:09;;;;;;;6.33;3.03;;;;;;;19.81;34.20;98497.56;8502641;27;20233;-75
2022/04/29 18:35:14;;;;;;;5.93;3.20;;;;;;;19.75;34.34;98492.78;8502639;27;20259;-75
2022/04/29 18:39:17;;;;;;;4.10;3.00;;;;;;;19.71;34.52;98495.59;8502554;27;20432;-75
2022/04/29 18:43:20;;;;;;;5.00;2.80;;;;;;;19.60;34.30;98498.16;8502313;27;20255;-76
2022/04/29 18:47:23;;;;;;;4.27;3.13;;;;;;;19.50;34.48;98498.00;8484598;27;20520;-75
2022/04/29 18:51:27;;;;;;;5.17;3.00;;;;;;;19.44;34.42;98484.44;8485038;28;20429;-75
2022/04/29 18:55:30;;;;;;;7.00;3.00;;;;;;;19.35;34.26;98493.84;8484527;28;20237;-76
2022/04/29 18:59:33;;;;;;;5.27;3.57;;;;;;;19.33;34.43;98488.69;8484700;28;20243;-75
2022/04/29 19:03:36;;;;;;;6.37;3.30;;;;;;;19.21;34.60;98493.97;8484588;27;20237;-75
2022/04/29 19:07:41;;;;;;;5.20;3.30;;;;;;;19.20;35.34;98495.78;8484628;28;20294;-75
2022/04/29 19:11:45;;;;;;;5.90;3.30;;;;;;;19.17;35.31;98501.22;8483965;27;20231;-75
2022/04/29 19:15:48;;;;;;;4.77;3.87;;;;;;;19.12;36.09;98506.00;8484053;28;20238;-75
2022/04/29 19:19:51;;;;;;;4.97;3.77;;;;;;;18.95;36.56;98501.94;8484123;27;20468;-75
2022/04/29 19:23:56;;;;;;;5.27;4.10;;;;;;;18.95;36.52;98502.75;8484009;27;20248;-75
2022/04/29 19:27:59;;;;;;;7.70;4.20;;;;;;;18.89;35.51;98505.00;8483893;28;20296;-75
2022/04/29 19:32:02;;;;;;;5.63;3.90;;;;;;;18.78;35.34;98515.38;8483837;27;20229;-75
2022/04/29 19:36:05;;;;;;;7.57;3.47;;;;;;;18.77;35.81;98514.50;8483450;28;20233;-75
2022/04/29 19:40:11;;;;;;;5.50;3.37;;;;;;;18.81;35.48;98504.66;8483484;28;20241;-75
2022/04/29 19:44:16;;;;;;;6.07;3.47;;;;;;;18.64;35.19;98516.28;8483010;27;20225;-75
2022/04/29 19:48:19;;;;;;;4.77;3.63;;;;;;;18.70;36.84;98515.88;8483189;28;20442;-75
2022/04/29 19:52:22;;;;;;;4.37;3.70;;;;;;;18.61;37.23;98513.91;8499556;27;20520;-74
2022/04/29 19:56:30;;;;;;;7.40;3.87;;;;;;;18.48;37.75;98509.47;8499736;27;20228;-75
2022/04/29 20:00:33;;;;;;;6.83;3.40;;;;;;;18.44;37.93;98509.81;8499887;27;20236;-75
2022/04/29 20:04:38;;;;;;;6.50;4.10;;;;;;;18.36;39.10;98521.63;8499744;27;20539;-75
2022/04/29 20:08:42;;;;;;;6.37;4.10;;;;;;;18.34;39.71;98514.84;8499228;27;24219;-75
2022/04/29 20:12:46;;;;;;;6.90;4.20;;;;;;;18.32;39.65;98522.78;8498962;27;20230;-75